Garden Plain, Kansas
Current Conditions -  °F | °C
As of 11:53 PM on Friday 19 Dec 2014 (Local Time) from KICT Reporting Station
Overcast Overcast  
Wind Chill: 33°   Ceiling: 1700
Heat Index: 38°   Visibility: 8mi
Dew Point: 34°   Wind: 7mph
Humidity: 86%   Direction: 190°S
Pressure: 30.18"   Gusts: NA
Location:  37.66°N, 97.68°W
Report Text: KICT 200553Z 19006KT 8SM OVC017 03/01 A3018 RMK AO2 SLP229 T00330011 10033 20028 400331006 55001
Loading
Personal Weather Stations






























Interactive Weather Map New forecast layout! Learn more

10-Day Weather Forecast

Advertisements
Track Severe Weather on mobile